createdAt,value
2022-11-05T00:03:54.373Z,10.47
2022-11-05T00:07:38.526Z,10.48
2022-11-05T00:10:59.975Z,10.45
2022-11-05T00:14:56.492Z,10.45
2022-11-05T00:18:17.937Z,10.42
2022-11-05T00:22:14.663Z,10.42
2022-11-05T00:25:35.941Z,10.43
2022-11-05T00:29:33.797Z,10.43
2022-11-05T00:33:14.435Z,10.42
2022-11-05T00:36:35.611Z,10.41
2022-11-05T00:40:14.803Z,10.38
2022-11-05T00:44:09.729Z,10.34
2022-11-05T00:48:08.782Z,10.30
2022-11-05T00:51:29.994Z,10.22
2022-11-05T00:55:32.729Z,10.16
2022-11-05T00:59:12.881Z,10.09
2022-11-05T01:02:52.808Z,10.00
2022-11-05T01:06:16.124Z,9.98
2022-11-05T01:10:10.178Z,9.90
2022-11-05T01:13:32.287Z,9.86
2022-11-05T01:17:27.102Z,9.82
2022-11-05T01:20:49.226Z,9.76
2022-11-05T01:24:25.498Z,9.67
2022-11-05T01:28:04.607Z,9.59
2022-11-05T01:31:59.807Z,9.51
2022-11-05T01:35:21.152Z,9.40
2022-11-05T01:38:58.532Z,9.31
2022-11-05T01:42:36.358Z,9.24
2022-11-05T01:46:45.146Z,9.17
2022-11-05T01:50:32.539Z,9.13
2022-11-05T01:54:06.281Z,9.09
2022-11-05T01:57:33.038Z,8.98
2022-11-05T02:01:28.941Z,8.90
2022-11-05T02:04:54.961Z,8.86
2022-11-05T02:09:12.537Z,8.84
2022-11-05T02:12:36.720Z,8.76
2022-11-05T02:16:17.909Z,8.71
2022-11-05T02:20:09.608Z,8.66
2022-11-05T02:24:02.058Z,8.63
2022-11-05T02:27:54.364Z,8.61
2022-11-05T02:31:31.050Z,8.62
2022-11-05T02:35:41.033Z,8.58
2022-11-05T02:39:50.330Z,8.57
2022-11-05T02:43:22.168Z,8.48
2022-11-05T02:46:57.803Z,8.47
2022-11-05T02:50:55.908Z,8.44
2022-11-05T02:54:24.600Z,8.38
2022-11-05T02:57:55.396Z,8.33
2022-11-05T03:01:35.987Z,8.31
2022-11-05T03:05:10.701Z,8.28
2022-11-05T03:09:12.366Z,8.24
2022-11-05T03:13:11.568Z,8.23
2022-11-05T03:17:15.896Z,8.24
2022-11-05T03:20:59.103Z,8.21
2022-11-05T03:24:26.726Z,8.15
2022-11-05T03:28:21.379Z,8.15
2022-11-05T03:32:04.051Z,8.17
2022-11-05T03:35:29.532Z,8.14
2022-11-05T03:39:49.937Z,8.08
2022-11-05T03:43:14.310Z,8.04
2022-11-05T03:46:49.800Z,8.00
2022-11-05T03:50:42.005Z,8.02
2022-11-05T03:54:05.083Z,8.01
2022-11-05T03:57:44.219Z,8.03
2022-11-05T04:01:18.754Z,8.04
2022-11-05T04:04:56.530Z,8.06
2022-11-05T04:08:52.939Z,8.09
2022-11-05T04:12:33.267Z,8.12
2022-11-05T04:16:32.091Z,8.13
2022-11-05T04:20:11.972Z,8.14
2022-11-05T04:23:52.554Z,8.15
2022-11-05T04:27:13.707Z,8.15
2022-11-05T04:30:51.214Z,8.15
2022-11-05T04:34:29.127Z,8.18
2022-11-05T04:38:09.412Z,8.18
2022-11-05T04:41:48.004Z,8.18
2022-11-05T04:45:23.928Z,8.13
2022-11-05T04:48:59.936Z,8.12
2022-11-05T04:52:37.640Z,8.14
2022-11-05T04:56:19.808Z,8.16
2022-11-05T04:59:55.119Z,8.14
2022-11-05T05:03:51.284Z,8.14
2022-11-05T05:07:31.984Z,8.17
2022-11-05T05:10:52.699Z,8.19
2022-11-05T05:14:30.103Z,8.19
2022-11-05T05:18:09.545Z,8.16
2022-11-05T05:21:45.377Z,8.14
2022-11-05T05:25:41.935Z,8.13
2022-11-05T05:29:03.642Z,8.15
2022-11-05T05:33:02.404Z,8.17
2022-11-05T05:36:23.943Z,8.17
2022-11-05T05:40:01.088Z,8.15
2022-11-05T05:43:38.458Z,8.19
2022-11-05T05:47:16.353Z,8.18
2022-11-05T05:50:53.925Z,8.22
2022-11-05T05:54:50.543Z,8.27
2022-11-05T05:58:11.208Z,8.26
2022-11-05T06:01:49.149Z,8.26
2022-11-05T06:05:26.456Z,8.30
2022-11-05T06:09:04.280Z,8.33
2022-11-05T06:12:41.818Z,8.34
2022-11-05T06:16:39.726Z,8.29
2022-11-05T06:20:19.444Z,8.27
2022-11-05T06:23:42.260Z,8.28
2022-11-05T06:27:36.578Z,8.31
2022-11-05T06:30:57.924Z,8.31
2022-11-05T06:34:36.832Z,8.26
2022-11-05T06:38:33.539Z,8.25
2022-11-05T06:42:20.571Z,8.25
2022-11-05T06:45:41.861Z,8.28
2022-11-05T06:49:38.866Z,8.30
2022-11-05T06:53:18.459Z,8.36
2022-11-05T06:56:57.962Z,8.41
2022-11-05T07:00:38.468Z,8.38
2022-11-05T07:03:59.204Z,8.28
2022-11-05T07:07:53.922Z,8.25
2022-11-05T07:11:14.544Z,8.19
2022-11-05T07:14:52.492Z,8.19
2022-11-05T07:18:48.837Z,8.19
2022-11-05T07:22:28.244Z,8.21
2022-11-05T07:25:48.786Z,8.23
2022-11-05T07:29:45.439Z,8.24
2022-11-05T07:33:24.851Z,8.20
2022-11-05T07:37:04.522Z,8.23
2022-11-05T07:40:28.013Z,8.31
2022-11-05T07:44:04.145Z,8.24
2022-11-05T07:48:02.317Z,8.27
2022-11-05T07:51:23.299Z,8.31
2022-11-05T07:55:00.739Z,8.30
2022-11-05T07:58:39.066Z,8.28
2022-11-05T08:02:16.339Z,8.27
2022-11-05T08:06:12.876Z,8.27
2022-11-05T08:09:33.743Z,8.26
2022-11-05T08:13:13.403Z,8.25
2022-11-05T08:17:08.019Z,8.23
2022-11-05T08:20:29.379Z,8.18
2022-11-05T08:24:06.672Z,8.17
2022-11-05T08:27:45.735Z,8.18
2022-11-05T08:31:40.266Z,8.19
2022-11-05T08:35:19.885Z,8.20
2022-11-05T08:38:58.983Z,8.21
2022-11-05T08:42:19.650Z,8.23
2022-11-05T08:46:16.395Z,8.26
2022-11-05T08:49:37.307Z,8.30
2022-11-05T08:53:15.716Z,8.30
2022-11-05T08:56:52.804Z,8.29
2022-11-05T09:00:49.524Z,8.29
2022-11-05T09:04:10.479Z,8.30
2022-11-05T09:07:48.428Z,8.34
2022-11-05T09:11:43.027Z,8.34
2022-11-05T09:15:26.857Z,8.35
2022-11-05T09:18:48.385Z,8.32
2022-11-05T09:22:25.359Z,8.33
2022-11-05T09:26:22.092Z,8.35
2022-11-05T09:30:02.361Z,8.41
2022-11-05T09:33:42.004Z,8.45
2022-11-05T09:37:02.999Z,8.46
2022-11-05T09:41:11.880Z,8.50
2022-11-05T09:44:49.128Z,8.53
2022-11-05T09:48:33.266Z,8.57
2022-11-05T09:51:56.661Z,8.62
2022-11-05T09:55:41.997Z,8.67
2022-11-05T09:59:35.899Z,8.71
2022-11-05T10:03:21.418Z,8.74
2022-11-05T10:06:50.137Z,8.77
2022-11-05T10:10:41.023Z,8.77
2022-11-05T10:14:33.029Z,8.80
2022-11-05T10:17:59.624Z,8.82
2022-11-05T10:21:51.831Z,8.83
2022-11-05T10:25:37.322Z,8.82
2022-11-05T10:28:58.249Z,8.80
2022-11-05T10:32:40.489Z,8.77
2022-11-05T10:36:37.258Z,8.76
2022-11-05T10:40:30.420Z,8.79
2022-11-05T10:44:28.363Z,8.85
2022-11-05T10:47:58.347Z,8.88
2022-11-05T10:51:27.455Z,8.86
2022-11-05T10:55:34.712Z,8.81
2022-11-05T10:59:27.682Z,8.75
2022-11-05T11:03:29.490Z,8.71
2022-11-05T11:06:56.854Z,8.70
2022-11-05T11:11:04.570Z,8.71
2022-11-05T11:15:01.966Z,8.69
2022-11-05T11:18:29.258Z,8.70
2022-11-05T11:22:03.645Z,8.62
2022-11-05T11:26:01.059Z,8.58
2022-11-05T11:29:28.765Z,8.55
2022-11-05T11:33:23.205Z,8.56
2022-11-05T11:36:49.302Z,8.59
2022-11-05T11:40:23.495Z,8.59
2022-11-05T11:44:19.577Z,8.58
2022-11-05T11:48:11.643Z,8.53
2022-11-05T11:51:40.802Z,8.51
2022-11-05T11:55:13.480Z,8.48
2022-11-05T11:59:30.799Z,8.49
2022-11-05T12:03:15.047Z,8.50
2022-11-05T12:07:19.802Z,8.51
2022-11-05T12:10:54.587Z,8.53
2022-11-05T12:14:53.876Z,8.47
2022-11-05T12:18:39.708Z,8.46
2022-11-05T12:22:26.736Z,8.50
2022-11-05T12:25:50.696Z,8.60
2022-11-05T12:29:38.278Z,8.66
2022-11-05T12:33:49.488Z,8.71
2022-11-05T12:37:26.131Z,8.73
2022-11-05T12:40:57.059Z,8.67
2022-11-05T12:44:38.153Z,8.60
2022-11-05T12:48:27.539Z,8.55
2022-11-05T12:51:59.855Z,8.57
2022-11-05T12:55:48.388Z,8.61
2022-11-05T12:59:16.033Z,8.64
2022-11-05T13:03:02.527Z,8.66
2022-11-05T13:06:39.773Z,8.64
2022-11-05T13:10:25.290Z,8.61
2022-11-05T13:14:14.600Z,8.60
2022-11-05T13:17:59.364Z,8.63
2022-11-05T13:21:24.212Z,8.64
2022-11-05T13:25:21.068Z,8.65
2022-11-05T13:28:55.656Z,8.62
2022-11-05T13:32:38.010Z,8.58
2022-11-05T13:36:45.805Z,8.52
2022-11-05T13:40:11.971Z,8.52
2022-11-05T13:44:41.239Z,8.51
2022-11-05T13:48:33.075Z,8.54
2022-11-05T13:52:23.160Z,8.56
2022-11-05T13:56:03.452Z,8.56
2022-11-05T13:59:57.879Z,8.51
2022-11-05T14:03:21.207Z,8.47
2022-11-05T14:07:15.263Z,8.42
2022-11-05T14:10:43.936Z,8.40
2022-11-05T14:14:22.904Z,8.37
2022-11-05T14:18:23.447Z,8.37
2022-11-05T14:22:28.120Z,8.33
2022-11-05T14:26:21.670Z,8.28
2022-11-05T14:29:49.822Z,8.27
2022-11-05T14:33:26.231Z,8.24
2022-11-05T14:37:22.297Z,8.21
2022-11-05T14:40:47.689Z,8.19
2022-11-05T14:44:21.288Z,8.14
2022-11-05T14:48:05.327Z,8.11
2022-11-05T14:51:58.568Z,8.09
2022-11-05T14:55:42.618Z,8.07
2022-11-05T14:59:30.924Z,8.09
2022-11-05T15:02:58.175Z,8.11
2022-11-05T15:06:37.348Z,8.09
2022-11-05T15:10:15.726Z,8.08
2022-11-05T15:14:02.831Z,8.06
2022-11-05T15:17:31.978Z,8.05
2022-11-05T15:21:05.019Z,8.06
2022-11-05T15:24:42.895Z,8.07
2022-11-05T15:28:37.421Z,8.04
2022-11-05T15:31:59.076Z,8.04
2022-11-05T15:35:39.773Z,8.05
2022-11-05T15:39:41.645Z,8.08
2022-11-05T15:43:19.648Z,8.10
2022-11-05T15:46:41.116Z,8.12
2022-11-05T15:50:18.653Z,8.10
2022-11-05T15:54:28.949Z,8.10
2022-11-05T15:57:51.289Z,8.11
2022-11-05T16:01:28.370Z,8.14
2022-11-05T16:05:17.744Z,8.17
2022-11-05T16:08:57.460Z,8.21
2022-11-05T16:12:18.954Z,8.23
2022-11-05T16:16:00.051Z,8.22
2022-11-05T16:19:40.340Z,8.16
2022-11-05T16:23:25.258Z,8.11
2022-11-05T16:27:03.606Z,8.09
2022-11-05T16:30:27.687Z,8.08
2022-11-05T16:34:40.857Z,8.11
2022-11-05T16:38:20.473Z,8.17
2022-11-05T16:41:43.359Z,8.19
2022-11-05T16:45:41.278Z,8.17
2022-11-05T16:49:21.996Z,8.14
2022-11-05T16:52:45.188Z,8.12
2022-11-05T16:56:22.614Z,8.11
2022-11-05T17:00:00.524Z,8.08
2022-11-05T17:03:54.704Z,8.08
2022-11-05T17:07:15.392Z,8.08
2022-11-05T17:11:17.393Z,8.10
2022-11-05T17:14:38.604Z,8.11
2022-11-05T17:18:18.768Z,8.14
2022-11-05T17:22:12.300Z,8.15
2022-11-05T17:25:33.213Z,8.18
2022-11-05T17:29:11.291Z,8.16
2022-11-05T17:33:07.434Z,8.12
2022-11-05T17:36:28.107Z,8.09
2022-11-05T17:40:08.035Z,8.04
2022-11-05T17:44:02.340Z,8.04
2022-11-05T17:47:42.144Z,8.06
2022-11-05T17:51:03.498Z,8.06
2022-11-05T17:54:40.340Z,8.03
2022-11-05T17:58:18.958Z,8.00
2022-11-05T18:01:56.217Z,7.98
2022-11-05T18:05:52.449Z,7.94
2022-11-05T18:09:13.891Z,7.95
2022-11-05T18:12:51.204Z,7.96
2022-11-05T18:16:28.269Z,7.97
2022-11-05T18:20:10.695Z,7.97
2022-11-05T18:23:43.882Z,7.95
2022-11-05T18:27:24.642Z,7.93
2022-11-05T18:31:20.033Z,7.93
2022-11-05T18:34:40.886Z,7.95
2022-11-05T18:38:18.550Z,7.95
2022-11-05T18:41:56.318Z,8.00
2022-11-05T18:45:55.813Z,8.04
2022-11-05T18:49:16.662Z,8.03
2022-11-05T18:52:54.227Z,8.01
2022-11-05T18:56:32.645Z,8.01
2022-11-05T19:00:10.075Z,8.01
2022-11-05T19:03:48.118Z,8.00
2022-11-05T19:07:24.821Z,7.99
2022-11-05T19:11:09.347Z,8.00
2022-11-05T19:15:02.333Z,7.98
2022-11-05T19:18:24.007Z,7.95
2022-11-05T19:22:01.545Z,7.91
2022-11-05T19:25:39.368Z,7.91
2022-11-05T19:29:16.729Z,7.89
2022-11-05T19:32:57.341Z,7.88
2022-11-05T19:36:33.259Z,7.91
2022-11-05T19:40:28.817Z,7.91
2022-11-05T19:43:50.342Z,7.90
2022-11-05T19:47:27.289Z,7.89
2022-11-05T19:51:10.285Z,7.92
2022-11-05T19:54:42.671Z,7.93
2022-11-05T19:58:20.102Z,7.93
2022-11-05T20:02:18.454Z,7.94
2022-11-05T20:05:39.375Z,7.94
2022-11-05T20:09:22.052Z,7.94
2022-11-05T20:13:19.634Z,7.89
2022-11-05T20:16:42.391Z,7.87
2022-11-05T20:20:19.402Z,7.88
2022-11-05T20:24:22.462Z,7.90
2022-11-05T20:27:45.225Z,7.90
2022-11-05T20:31:24.073Z,7.88
2022-11-05T20:35:00.617Z,7.84
2022-11-05T20:38:38.649Z,7.80
2022-11-05T20:42:36.999Z,7.77
2022-11-05T20:45:59.085Z,7.76
2022-11-05T20:49:36.867Z,7.77
2022-11-05T20:53:14.432Z,7.75
2022-11-05T20:57:10.619Z,7.77
2022-11-05T21:00:31.557Z,7.77
2022-11-05T21:04:08.908Z,7.73
2022-11-05T21:08:05.638Z,7.68
2022-11-05T21:11:26.824Z,7.66
2022-11-05T21:15:05.972Z,7.66
2022-11-05T21:18:42.139Z,7.65
2022-11-05T21:22:20.035Z,7.64
2022-11-05T21:25:57.427Z,7.62
2022-11-05T21:29:35.269Z,7.59
2022-11-05T21:33:32.851Z,7.53
2022-11-05T21:37:12.762Z,7.50
2022-11-05T21:40:33.417Z,7.44
2022-11-05T21:44:11.225Z,7.39
2022-11-05T21:47:48.750Z,7.37
2022-11-05T21:51:45.898Z,7.41
2022-11-05T21:55:44.704Z,7.44
2022-11-05T21:59:25.300Z,7.45
2022-11-05T22:02:46.781Z,7.44
2022-11-05T22:06:43.386Z,7.39
2022-11-05T22:10:09.658Z,7.30
2022-11-05T22:14:00.463Z,7.20
2022-11-05T22:17:21.882Z,7.19
2022-11-05T22:21:18.357Z,7.21
2022-11-05T22:24:59.066Z,7.22
2022-11-05T22:28:20.170Z,7.22
2022-11-05T22:32:16.503Z,7.17
2022-11-05T22:35:39.431Z,7.12
2022-11-05T22:39:33.871Z,7.07
2022-11-05T22:42:54.560Z,7.06
2022-11-05T22:46:51.954Z,7.06
2022-11-05T22:50:12.659Z,7.08
2022-11-05T22:53:50.581Z,7.08
2022-11-05T22:57:27.980Z,7.04
2022-11-05T23:01:07.981Z,7.00
2022-11-05T23:04:43.234Z,6.95
2022-11-05T23:08:58.466Z,6.92
2022-11-05T23:12:38.579Z,6.88
2022-11-05T23:16:18.125Z,6.85
2022-11-05T23:20:30.992Z,6.85
2022-11-05T23:24:06.944Z,6.83
2022-11-05T23:27:50.759Z,6.82
2022-11-05T23:31:30.075Z,6.78
2022-11-05T23:35:10.987Z,6.73
2022-11-05T23:38:50.808Z,6.69
2022-11-05T23:42:51.522Z,6.63
2022-11-05T23:46:49.833Z,6.54
2022-11-05T23:50:34.405Z,6.49
2022-11-05T23:54:16.493Z,6.48
2022-11-05T23:57:38.128Z,6.49
